createdAt,value
2022-08-17T00:00:33.284Z,99.90
2022-08-17T00:03:10.324Z,99.90
2022-08-17T00:05:43.701Z,99.90
2022-08-17T00:08:12.361Z,99.90
2022-08-17T00:10:39.301Z,99.90
2022-08-17T00:13:14.200Z,99.90
2022-08-17T00:15:44.789Z,99.90
2022-08-17T00:18:53.840Z,99.90
2022-08-17T00:20:59.890Z,99.90
2022-08-17T00:23:29.340Z,99.90
2022-08-17T00:25:56.528Z,99.90
2022-08-17T00:28:23.706Z,99.90
2022-08-17T00:30:53.580Z,99.90
2022-08-17T00:33:26.322Z,99.90
2022-08-17T00:35:54.048Z,99.90
2022-08-17T00:38:21.039Z,99.90
2022-08-17T00:41:00.920Z,99.90
2022-08-17T00:43:32.456Z,99.90
2022-08-17T00:46:01.705Z,99.90
2022-08-17T00:48:35.062Z,99.90
2022-08-17T00:51:25.491Z,99.90
2022-08-17T00:54:02.622Z,99.90
2022-08-17T00:56:35.119Z,99.90
2022-08-17T00:59:04.007Z,99.90
2022-08-17T01:01:31.844Z,99.90
2022-08-17T01:04:05.065Z,99.90
2022-08-17T01:06:34.616Z,99.90
2022-08-17T01:09:03.395Z,99.90
2022-08-17T01:11:32.319Z,99.90
2022-08-17T01:14:01.906Z,99.90
2022-08-17T01:16:34.903Z,99.90
2022-08-17T01:19:12.255Z,99.90
2022-08-17T01:21:51.234Z,99.90
2022-08-17T01:24:22.793Z,99.90
2022-08-17T01:26:52.267Z,99.90
2022-08-17T01:29:21.664Z,99.90
2022-08-17T01:31:57.286Z,99.90
2022-08-17T01:34:38.052Z,99.90
2022-08-17T01:37:14.900Z,99.90
2022-08-17T01:39:46.646Z,99.90
2022-08-17T01:42:31.638Z,99.90
2022-08-17T01:45:02.999Z,99.90
2022-08-17T01:47:29.943Z,99.90
2022-08-17T01:50:08.549Z,99.90
2022-08-17T01:52:35.948Z,99.90
2022-08-17T01:55:03.407Z,99.90
2022-08-17T01:57:30.213Z,99.90
2022-08-17T01:59:57.094Z,99.90
2022-08-17T02:02:30.565Z,99.90
2022-08-17T02:04:59.174Z,99.90
2022-08-17T02:07:27.050Z,99.90
2022-08-17T02:09:54.478Z,99.90
2022-08-17T02:12:38.852Z,99.90
2022-08-17T02:15:08.802Z,99.90
2022-08-17T02:17:40.548Z,99.90
2022-08-17T02:20:09.427Z,99.90
2022-08-17T02:22:40.462Z,99.90
2022-08-17T02:25:09.612Z,99.90
2022-08-17T02:27:37.775Z,99.90
2022-08-17T02:30:59.741Z,99.90
2022-08-17T02:32:56.779Z,99.90
2022-08-17T02:35:26.115Z,99.90
2022-08-17T02:37:55.657Z,99.90
2022-08-17T02:40:35.979Z,99.90
2022-08-17T02:43:06.955Z,99.90
2022-08-17T02:45:34.274Z,99.90
2022-08-17T02:48:03.368Z,99.90
2022-08-17T02:50:30.186Z,99.90
2022-08-17T02:53:01.873Z,99.90
2022-08-17T02:55:40.134Z,99.90
2022-08-17T02:58:13.505Z,99.90
2022-08-17T03:00:46.969Z,99.90
2022-08-17T03:03:18.788Z,99.90
2022-08-17T03:05:51.427Z,99.90
2022-08-17T03:08:19.360Z,99.90
2022-08-17T03:10:50.070Z,99.90
2022-08-17T03:13:20.056Z,99.90
2022-08-17T03:15:48.407Z,99.90
2022-08-17T03:18:19.103Z,99.90
2022-08-17T03:21:04.279Z,99.90
2022-08-17T03:23:32.619Z,99.90
2022-08-17T03:26:00.682Z,99.90
2022-08-17T03:28:28.289Z,99.90
2022-08-17T03:30:55.301Z,99.90
2022-08-17T03:33:22.970Z,99.90
2022-08-17T03:35:49.899Z,99.90
2022-08-17T03:38:21.780Z,99.90
2022-08-17T03:40:56.464Z,99.90
2022-08-17T03:43:29.030Z,99.90
2022-08-17T03:46:27.160Z,99.90
2022-08-17T03:49:17.791Z,99.90
2022-08-17T03:52:03.036Z,99.90
2022-08-17T03:54:48.405Z,99.90
2022-08-17T03:57:16.313Z,99.90
2022-08-17T03:59:43.511Z,99.90
2022-08-17T04:02:23.051Z,99.90
2022-08-17T04:04:50.980Z,99.90
2022-08-17T04:07:27.404Z,99.90
2022-08-17T04:09:54.263Z,99.90
2022-08-17T04:12:25.130Z,99.90
2022-08-17T04:14:55.229Z,99.90
2022-08-17T04:17:28.518Z,99.90
2022-08-17T04:20:00.942Z,99.90
2022-08-17T04:22:34.231Z,99.90
2022-08-17T04:25:06.942Z,99.90
2022-08-17T04:27:36.585Z,99.90
2022-08-17T04:30:07.202Z,99.90
2022-08-17T04:33:04.058Z,99.90
2022-08-17T04:35:40.224Z,99.90
2022-08-17T04:38:11.940Z,99.90
2022-08-17T04:40:58.123Z,99.90
2022-08-17T04:43:26.614Z,99.90
2022-08-17T04:45:56.584Z,99.90
2022-08-17T04:48:36.129Z,99.90
2022-08-17T04:51:17.784Z,99.90
2022-08-17T04:53:51.093Z,99.90
2022-08-17T04:56:22.285Z,99.90
2022-08-17T04:58:51.257Z,99.90
2022-08-17T05:01:23.312Z,99.90
2022-08-17T05:03:53.357Z,99.90
2022-08-17T05:06:20.616Z,99.90
2022-08-17T05:08:47.595Z,99.90
2022-08-17T05:11:16.604Z,99.90
2022-08-17T05:13:43.562Z,99.90
2022-08-17T05:16:12.833Z,99.90
2022-08-17T05:18:41.841Z,99.90
2022-08-17T05:21:11.297Z,99.90
2022-08-17T05:23:43.646Z,99.90
2022-08-17T05:26:26.711Z,99.90
2022-08-17T05:28:57.180Z,99.90
2022-08-17T05:31:28.360Z,99.90
2022-08-17T05:33:55.311Z,99.90
2022-08-17T05:36:43.021Z,99.90
2022-08-17T05:39:16.846Z,99.90
2022-08-17T05:41:48.117Z,99.90
2022-08-17T05:44:18.152Z,99.90
2022-08-17T05:46:49.514Z,99.90
2022-08-17T05:49:24.698Z,99.90
2022-08-17T05:52:30.774Z,99.90
2022-08-17T05:55:12.684Z,99.90
2022-08-17T05:58:07.226Z,99.90
2022-08-17T06:00:50.686Z,99.90
2022-08-17T06:03:20.638Z,99.90
2022-08-17T06:06:11.857Z,99.90
2022-08-17T06:09:04.359Z,99.90
2022-08-17T06:11:55.066Z,99.90
2022-08-17T06:14:55.868Z,99.90
2022-08-17T06:17:27.777Z,99.90
2022-08-17T06:19:59.792Z,99.90
2022-08-17T06:22:53.656Z,99.90
2022-08-17T06:25:42.572Z,99.90
2022-08-17T06:28:21.000Z,99.90
2022-08-17T06:31:00.081Z,99.90
2022-08-17T06:33:35.246Z,99.90
2022-08-17T06:36:26.433Z,99.90
2022-08-17T06:39:02.187Z,99.90
2022-08-17T06:41:41.789Z,99.90
2022-08-17T06:44:42.173Z,99.90
2022-08-17T06:47:27.951Z,99.90
2022-08-17T06:50:16.487Z,99.90
2022-08-17T06:53:21.624Z,99.90
2022-08-17T06:56:13.507Z,99.90
2022-08-17T06:58:44.059Z,99.90
2022-08-17T07:01:17.867Z,99.90
2022-08-17T07:04:12.935Z,99.90
2022-08-17T07:06:46.127Z,99.90
2022-08-17T07:09:23.386Z,99.90
2022-08-17T07:11:59.006Z,99.90
2022-08-17T07:14:31.853Z,99.90
2022-08-17T07:17:02.827Z,99.90
2022-08-17T07:19:34.979Z,99.90
2022-08-17T07:22:20.417Z,99.90
2022-08-17T07:24:47.385Z,99.90
2022-08-17T07:27:23.247Z,99.90
2022-08-17T07:30:10.367Z,99.90
2022-08-17T07:32:45.816Z,99.90
2022-08-17T07:35:22.043Z,99.90
2022-08-17T07:38:26.949Z,99.90
2022-08-17T07:41:03.842Z,99.90
2022-08-17T07:43:39.778Z,99.90
2022-08-17T07:46:39.063Z,99.90
2022-08-17T07:49:12.561Z,99.90
2022-08-17T07:51:42.325Z,99.90
2022-08-17T07:54:15.296Z,99.90
2022-08-17T07:57:18.237Z,99.90
2022-08-17T08:00:01.474Z,99.90
2022-08-17T08:02:40.287Z,99.90
2022-08-17T08:05:12.864Z,99.90
2022-08-17T08:07:50.321Z,99.90
2022-08-17T08:10:32.270Z,99.90
2022-08-17T08:13:10.643Z,99.90
2022-08-17T08:15:53.826Z,99.90
2022-08-17T08:18:54.531Z,99.90
2022-08-17T08:21:21.741Z,99.90
2022-08-17T08:24:30.905Z,99.90
2022-08-17T08:27:30.802Z,99.90
2022-08-17T08:30:12.012Z,99.90
2022-08-17T08:32:57.847Z,99.90
2022-08-17T08:35:43.398Z,99.90
2022-08-17T08:38:28.376Z,99.90
2022-08-17T08:41:25.414Z,99.90
2022-08-17T08:43:55.365Z,99.90
2022-08-17T08:46:40.597Z,99.90
2022-08-17T08:49:45.299Z,99.90
2022-08-17T08:52:50.039Z,99.90
2022-08-17T08:55:36.729Z,98.70
2022-08-17T08:58:31.384Z,97.70
2022-08-17T09:01:08.839Z,96.50
2022-08-17T09:03:53.733Z,96.20
2022-08-17T09:06:44.366Z,91.70
2022-08-17T09:09:20.724Z,89.70
2022-08-17T09:12:10.168Z,92.50
2022-08-17T09:14:47.378Z,92.50
2022-08-17T09:17:35.586Z,92.20
2022-08-17T09:20:30.607Z,91.00
2022-08-17T09:23:07.934Z,90.00
2022-08-17T09:25:55.670Z,87.30
2022-08-17T09:28:38.139Z,84.70
2022-08-17T09:31:19.753Z,84.50
2022-08-17T09:33:48.574Z,81.10
2022-08-17T09:37:00.685Z,85.30
2022-08-17T09:39:46.385Z,76.00
2022-08-17T09:42:38.038Z,77.80
2022-08-17T09:45:38.801Z,81.70
2022-08-17T09:48:35.312Z,76.80
2022-08-17T09:51:20.153Z,79.30
2022-08-17T09:53:51.092Z,80.50
2022-08-17T09:56:24.161Z,76.50
2022-08-17T09:59:27.408Z,80.90
2022-08-17T10:02:12.366Z,84.40
2022-08-17T10:05:02.257Z,83.30
2022-08-17T10:07:34.893Z,76.30
2022-08-17T10:10:29.696Z,76.80
2022-08-17T10:13:09.616Z,79.70
2022-08-17T10:16:01.285Z,85.60
2022-08-17T10:18:31.949Z,83.50
2022-08-17T10:21:26.992Z,85.80
2022-08-17T10:25:21.578Z,79.00
2022-08-17T10:27:42.278Z,81.10
2022-08-17T10:30:13.766Z,81.60
2022-08-17T10:32:55.044Z,80.80
2022-08-17T10:35:40.591Z,84.60
2022-08-17T10:38:21.591Z,80.80
2022-08-17T10:40:57.708Z,81.00
2022-08-17T10:43:44.725Z,86.20
2022-08-17T10:47:08.417Z,84.80
2022-08-17T10:49:53.613Z,81.70
2022-08-17T10:52:22.926Z,82.50
2022-08-17T10:54:58.381Z,85.20
2022-08-17T10:57:34.527Z,85.50
2022-08-17T11:00:10.410Z,80.20
2022-08-17T11:02:49.897Z,86.60
2022-08-17T11:05:45.813Z,82.40
2022-08-17T11:08:31.351Z,80.70
2022-08-17T11:10:58.128Z,85.50
2022-08-17T11:14:17.139Z,90.50
2022-08-17T11:16:55.693Z,83.60
2022-08-17T11:20:08.218Z,84.70
2022-08-17T11:22:50.482Z,87.30
2022-08-17T11:25:31.719Z,80.40
2022-08-17T11:28:22.556Z,81.60
2022-08-17T11:31:01.075Z,85.20
2022-08-17T11:33:38.191Z,79.30
2022-08-17T11:36:27.027Z,79.90
2022-08-17T11:39:19.423Z,90.90
2022-08-17T11:42:21.701Z,81.90
2022-08-17T11:44:56.246Z,80.10
2022-08-17T11:48:27.301Z,77.60
2022-08-17T11:51:46.912Z,85.30
2022-08-17T11:54:48.366Z,82.30
2022-08-17T11:57:27.412Z,82.90
2022-08-17T12:00:00.915Z,84.10
2022-08-17T12:02:38.708Z,78.30
2022-08-17T12:05:14.281Z,75.90
2022-08-17T12:07:49.385Z,80.60
2022-08-17T12:10:23.089Z,83.90
2022-08-17T12:12:54.447Z,78.30
2022-08-17T12:15:35.026Z,77.20
2022-08-17T12:18:01.925Z,80.70
2022-08-17T12:20:39.605Z,75.20
2022-08-17T12:23:51.377Z,85.00
2022-08-17T12:26:23.149Z,81.40
2022-08-17T12:29:03.165Z,81.90
2022-08-17T12:31:43.133Z,88.00
2022-08-17T12:34:19.620Z,83.30
2022-08-17T12:36:51.004Z,83.80
2022-08-17T12:39:25.095Z,78.80
2022-08-17T12:42:01.915Z,78.80
2022-08-17T12:44:35.947Z,79.00
2022-08-17T12:47:22.183Z,89.50
2022-08-17T12:49:52.228Z,88.30
2022-08-17T12:52:32.804Z,82.70
2022-08-17T12:55:01.150Z,90.00
2022-08-17T12:57:41.372Z,81.60
2022-08-17T13:00:29.751Z,79.50
2022-08-17T13:03:14.295Z,79.40
2022-08-17T13:05:58.006Z,77.60
2022-08-17T13:08:46.048Z,77.70
2022-08-17T13:11:18.744Z,78.60
2022-08-17T13:13:51.662Z,81.60
2022-08-17T13:16:29.692Z,79.40
2022-08-17T13:19:39.945Z,80.20
2022-08-17T13:22:12.443Z,77.40
2022-08-17T13:24:54.411Z,79.10
2022-08-17T13:27:25.976Z,85.10
2022-08-17T13:29:59.617Z,85.10
2022-08-17T13:32:37.387Z,82.80
2022-08-17T13:35:32.409Z,79.40
2022-08-17T13:38:15.569Z,83.20
2022-08-17T13:40:49.040Z,85.10
2022-08-17T13:43:38.554Z,83.70
2022-08-17T13:46:24.292Z,80.30
2022-08-17T13:49:10.813Z,81.30
2022-08-17T13:51:46.594Z,86.40
2022-08-17T13:54:34.421Z,90.50
2022-08-17T13:57:03.625Z,84.40
2022-08-17T13:59:54.616Z,83.50
2022-08-17T14:02:27.581Z,86.00
2022-08-17T14:04:55.814Z,81.30
2022-08-17T14:07:31.346Z,84.30
2022-08-17T14:10:12.756Z,82.50
2022-08-17T14:12:41.950Z,90.40
2022-08-17T14:15:10.298Z,90.40
2022-08-17T14:17:39.072Z,86.80
2022-08-17T14:20:12.177Z,90.00
2022-08-17T14:22:45.328Z,91.10
2022-08-17T14:25:15.519Z,88.40
2022-08-17T14:27:52.190Z,87.10
2022-08-17T14:30:26.933Z,90.00
2022-08-17T14:32:57.946Z,86.70
2022-08-17T14:35:25.224Z,88.10
2022-08-17T14:37:52.851Z,86.80
2022-08-17T14:40:24.951Z,86.60
2022-08-17T14:42:56.291Z,90.60
2022-08-17T14:45:29.653Z,92.90
2022-08-17T14:48:07.699Z,92.10
2022-08-17T14:50:42.922Z,94.20
2022-08-17T14:53:11.641Z,95.00
2022-08-17T14:55:40.022Z,89.20
2022-08-17T14:58:08.870Z,91.90
2022-08-17T15:00:36.246Z,95.60
2022-08-17T15:03:03.833Z,93.40
2022-08-17T15:05:34.873Z,95.30
2022-08-17T15:08:03.055Z,97.40
2022-08-17T15:10:30.805Z,96.00
2022-08-17T15:13:05.851Z,93.80
2022-08-17T15:15:32.763Z,96.10
2022-08-17T15:17:59.941Z,94.60
2022-08-17T15:20:29.555Z,95.90
2022-08-17T15:22:58.808Z,96.70
2022-08-17T15:25:29.011Z,94.60
2022-08-17T15:27:59.185Z,94.10
2022-08-17T15:30:28.993Z,95.30
2022-08-17T15:32:57.932Z,97.40
2022-08-17T15:39:46.638Z,91.80
2022-08-17T15:42:16.946Z,94.80
2022-08-17T15:44:44.679Z,94.90
2022-08-17T15:47:12.141Z,94.10
2022-08-17T15:49:40.439Z,94.20
2022-08-17T15:52:20.914Z,92.80
2022-08-17T15:54:53.863Z,94.60
2022-08-17T15:57:26.487Z,94.60
2022-08-17T15:59:59.010Z,93.70
2022-08-17T16:03:45.924Z,94.50
2022-08-17T16:05:28.506Z,94.30
2022-08-17T16:07:59.555Z,93.90
2022-08-17T16:10:35.736Z,94.40
2022-08-17T16:13:17.382Z,95.10
2022-08-17T16:15:51.092Z,93.30
2022-08-17T16:18:31.657Z,94.90
2022-08-17T16:21:24.769Z,98.50
2022-08-17T16:23:56.408Z,98.50
2022-08-17T16:26:23.909Z,96.70
2022-08-17T16:28:52.127Z,96.70
2022-08-17T16:31:21.653Z,97.60
2022-08-17T16:34:17.023Z,97.40
2022-08-17T16:36:42.517Z,97.80
2022-08-17T16:39:21.656Z,98.20
2022-08-17T16:41:48.538Z,97.40
2022-08-17T16:44:20.060Z,97.60
2022-08-17T16:46:48.199Z,98.50
2022-08-17T16:49:35.612Z,98.70
2022-08-17T16:52:09.502Z,98.60
2022-08-17T16:54:43.777Z,98.10
2022-08-17T16:57:15.624Z,98.80
2022-08-17T16:59:47.486Z,97.80
2022-08-17T17:02:23.475Z,97.30
2022-08-17T17:05:34.335Z,97.50
2022-08-17T17:08:08.991Z,99.00
2022-08-17T17:10:49.647Z,97.10
2022-08-17T17:13:24.004Z,97.50
2022-08-17T17:16:09.543Z,96.00
2022-08-17T17:18:47.083Z,99.30
2022-08-17T17:21:18.256Z,98.00
2022-08-17T17:23:50.066Z,98.50
2022-08-17T17:26:45.232Z,98.40
2022-08-17T17:29:47.385Z,97.10
2022-08-17T17:32:35.803Z,97.60
2022-08-17T17:35:10.893Z,96.90
2022-08-17T17:37:44.070Z,96.70
2022-08-17T17:40:23.339Z,98.10
2022-08-17T17:43:05.587Z,98.80
2022-08-17T17:45:55.468Z,97.40
2022-08-17T17:48:22.439Z,96.90
2022-08-17T17:51:01.683Z,98.20
2022-08-17T17:53:45.209Z,98.30
2022-08-17T17:56:42.899Z,99.30
2022-08-17T17:59:12.928Z,98.80
2022-08-17T18:01:52.253Z,98.70
2022-08-17T18:04:32.958Z,98.30
2022-08-17T18:07:00.249Z,98.50
2022-08-17T18:09:27.017Z,99.10
2022-08-17T18:12:06.462Z,99.60
2022-08-17T18:15:06.520Z,99.50
2022-08-17T18:17:33.464Z,98.50
2022-08-17T18:20:02.875Z,97.30
2022-08-17T18:22:31.132Z,99.60
2022-08-17T18:25:00.793Z,98.40
2022-08-17T18:27:38.616Z,99.10
2022-08-17T18:30:16.789Z,99.50
2022-08-17T18:32:49.542Z,99.70
2022-08-17T18:35:19.411Z,99.90
2022-08-17T18:37:57.557Z,99.90
2022-08-17T18:40:29.477Z,99.90
2022-08-17T18:43:05.078Z,99.90
2022-08-17T18:45:35.046Z,99.90
2022-08-17T18:48:02.350Z,99.90
2022-08-17T18:50:41.410Z,99.90
2022-08-17T18:53:33.391Z,99.90
2022-08-17T18:56:44.087Z,99.90
2022-08-17T18:59:21.573Z,99.90
2022-08-17T19:02:11.567Z,99.90
2022-08-17T19:05:02.114Z,99.90
2022-08-17T19:07:45.164Z,99.90
2022-08-17T19:10:28.648Z,99.90
2022-08-17T19:13:14.047Z,99.90
2022-08-17T19:16:13.864Z,99.90
2022-08-17T19:18:57.942Z,99.90
2022-08-17T19:21:37.595Z,99.90
2022-08-17T19:24:24.685Z,99.90
2022-08-17T19:27:12.183Z,99.90
2022-08-17T19:30:07.491Z,99.90
2022-08-17T19:32:38.456Z,99.90
2022-08-17T19:35:16.646Z,99.90
2022-08-17T19:38:13.408Z,99.90
2022-08-17T19:41:08.358Z,99.90
2022-08-17T19:44:06.105Z,99.90
2022-08-17T19:46:56.059Z,99.90
2022-08-17T19:49:41.487Z,99.90
2022-08-17T19:52:14.563Z,99.90
2022-08-17T19:54:55.338Z,99.90
2022-08-17T19:57:37.000Z,99.90
2022-08-17T20:00:13.594Z,99.90
2022-08-17T20:03:05.851Z,99.90
2022-08-17T20:06:08.489Z,99.90
2022-08-17T20:08:34.391Z,99.90
2022-08-17T20:11:07.242Z,99.90
2022-08-17T20:13:41.413Z,99.90
2022-08-17T20:16:10.181Z,99.90
2022-08-17T20:18:47.811Z,99.90
2022-08-17T20:21:50.267Z,99.90
2022-08-17T20:24:30.167Z,99.90
2022-08-17T20:27:16.726Z,99.90
2022-08-17T20:30:10.474Z,99.90
2022-08-17T20:32:56.898Z,99.90
2022-08-17T20:35:30.240Z,99.90
2022-08-17T20:38:02.508Z,99.90
2022-08-17T20:40:36.738Z,99.90
2022-08-17T20:43:29.882Z,99.90
2022-08-17T20:46:04.313Z,99.90
2022-08-17T20:48:39.542Z,99.90
2022-08-17T20:51:31.415Z,99.90
2022-08-17T20:54:06.589Z,99.90
2022-08-17T20:56:43.264Z,99.90
2022-08-17T20:59:33.096Z,99.90
2022-08-17T21:02:18.430Z,99.90
2022-08-17T21:04:54.348Z,99.90
2022-08-17T21:07:29.310Z,99.90
2022-08-17T21:10:31.882Z,99.90
2022-08-17T21:13:04.722Z,99.90
2022-08-17T21:15:43.442Z,99.90
2022-08-17T21:18:28.866Z,99.90
2022-08-17T21:21:24.158Z,99.90
2022-08-17T21:24:16.234Z,99.90
2022-08-17T21:27:01.897Z,99.90
2022-08-17T21:29:33.989Z,99.90
2022-08-17T21:32:03.865Z,99.90
2022-08-17T21:35:21.667Z,99.90
2022-08-17T21:37:53.267Z,99.90
2022-08-17T21:40:33.923Z,99.90
2022-08-17T21:43:29.315Z,99.90
2022-08-17T21:45:58.301Z,99.90
2022-08-17T21:48:27.509Z,99.90
2022-08-17T21:51:10.935Z,99.90
2022-08-17T21:53:48.121Z,99.90
2022-08-17T21:56:26.067Z,99.90
2022-08-17T21:59:05.486Z,99.90
2022-08-17T22:01:43.002Z,99.90
2022-08-17T22:04:12.641Z,99.90
2022-08-17T22:06:57.347Z,99.90
2022-08-17T22:09:32.468Z,99.90
2022-08-17T22:12:02.295Z,99.90
2022-08-17T22:14:52.576Z,99.90
2022-08-17T22:17:25.549Z,99.90
2022-08-17T22:20:35.073Z,99.90
2022-08-17T22:23:20.402Z,99.90
2022-08-17T22:26:05.817Z,99.90
2022-08-17T22:28:49.129Z,99.90
2022-08-17T22:31:28.552Z,99.90
2022-08-17T22:34:01.132Z,99.90
2022-08-17T22:36:38.727Z,99.90
2022-08-17T22:39:10.820Z,99.90
2022-08-17T22:41:42.686Z,99.90
2022-08-17T22:44:14.233Z,99.90
2022-08-17T22:47:23.445Z,99.90
2022-08-17T22:49:57.623Z,99.90
2022-08-17T22:52:56.370Z,99.90
2022-08-17T22:55:42.008Z,99.90
2022-08-17T22:58:33.734Z,99.90
2022-08-17T23:01:31.323Z,99.90
2022-08-17T23:04:10.226Z,99.90
2022-08-17T23:06:39.082Z,99.90
2022-08-17T23:09:07.419Z,99.90
2022-08-17T23:11:50.500Z,99.90
2022-08-17T23:14:20.919Z,99.90
2022-08-17T23:16:50.051Z,99.90
2022-08-17T23:19:19.858Z,99.90
2022-08-17T23:21:50.266Z,99.90
2022-08-17T23:24:25.014Z,99.90
2022-08-17T23:26:52.332Z,99.90
2022-08-17T23:29:23.797Z,99.90
2022-08-17T23:31:53.272Z,99.90
2022-08-17T23:34:20.305Z,99.90
2022-08-17T23:36:53.115Z,99.90
2022-08-17T23:39:28.089Z,99.90
2022-08-17T23:41:57.851Z,99.90
2022-08-17T23:44:28.748Z,99.90
2022-08-17T23:46:55.803Z,99.90
2022-08-17T23:49:24.386Z,99.90
2022-08-17T23:51:55.105Z,99.90
2022-08-17T23:54:21.861Z,99.90
2022-08-17T23:56:51.438Z,99.90
2022-08-17T23:59:23.201Z,99.90
